sensor_id;sensor_type;location;lat;lon;timestamp;temperature;humidity
22676;DHT22;12521;43.310;21.876;2023-02-15T00:02:55;4.9;96.0
22676;DHT22;12521;43.310;21.876;2023-02-15T00:07:32;4.9;96.0
22676;DHT22;12521;43.310;21.876;2023-02-15T00:12:09;4.9;96.0
22676;DHT22;12521;43.310;21.876;2023-02-15T00:16:49;4.9;96.0
22676;DHT22;12521;43.310;21.876;2023-02-15T00:21:29;4.9;96.0
22676;DHT22;12521;43.310;21.876;2023-02-15T00:26:11;4.9;96.0
22676;DHT22;12521;43.310;21.876;2023-02-15T00:30:48;4.9;96.0
22676;DHT22;12521;43.310;21.876;2023-02-15T00:35:24;4.9;96.0
22676;DHT22;12521;43.310;21.876;2023-02-15T00:40:01;4.9;96.0
22676;DHT22;12521;43.310;21.876;2023-02-15T00:44:40;4.9;96.0
22676;DHT22;12521;43.310;21.876;2023-02-15T00:49:17;4.9;96.0
22676;DHT22;12521;43.310;21.876;2023-02-15T00:53:54;4.9;96.0
22676;DHT22;12521;43.310;21.876;2023-02-15T00:58:31;4.9;96.0
22676;DHT22;12521;43.310;21.876;2023-02-15T01:03:09;4.9;96.0
22676;DHT22;12521;43.310;21.876;2023-02-15T01:07:49;4.9;96.0
22676;DHT22;12521;43.310;21.876;2023-02-15T01:12:26;4.8;96.0
22676;DHT22;12521;43.310;21.876;2023-02-15T01:17:02;4.8;96.0
22676;DHT22;12521;43.310;21.876;2023-02-15T01:21:39;4.8;96.0
22676;DHT22;12521;43.310;21.876;2023-02-15T01:26:16;4.8;96.0
22676;DHT22;12521;43.310;21.876;2023-02-15T01:30:54;4.8;96.0
22676;DHT22;12521;43.310;21.876;2023-02-15T01:35:31;4.8;96.0
22676;DHT22;12521;43.310;21.876;2023-02-15T01:40:12;4.8;96.0
22676;DHT22;12521;43.310;21.876;2023-02-15T01:44:55;4.7;96.0
22676;DHT22;12521;43.310;21.876;2023-02-15T01:49:41;4.7;96.0
22676;DHT22;12521;43.310;21.876;2023-02-15T01:54:25;4.7;96.0
22676;DHT22;12521;43.310;21.876;2023-02-15T01:59:15;4.7;96.0
22676;DHT22;12521;43.310;21.876;2023-02-15T02:04:07;4.7;96.0
22676;DHT22;12521;43.310;21.876;2023-02-15T02:09:05;4.7;96.0
22676;DHT22;12521;43.310;21.876;2023-02-15T02:13:44;4.7;96.0
22676;DHT22;12521;43.310;21.876;2023-02-15T02:18:34;4.7;96.0
22676;DHT22;12521;43.310;21.876;2023-02-15T02:24:43;4.7;96.0
22676;DHT22;12521;43.310;21.876;2023-02-15T02:31:00;4.7;96.0
22676;DHT22;12521;43.310;21.876;2023-02-15T02:37:01;4.6;96.0
22676;DHT22;12521;43.310;21.876;2023-02-15T02:42:13;4.6;96.0
22676;DHT22;12521;43.310;21.876;2023-02-15T02:47:19;4.6;96.0
22676;DHT22;12521;43.310;21.876;2023-02-15T02:52:39;4.6;96.0
22676;DHT22;12521;43.310;21.876;2023-02-15T02:57:24;4.6;96.0
22676;DHT22;12521;43.310;21.876;2023-02-15T03:02:11;4.6;96.0
22676;DHT22;12521;43.310;21.876;2023-02-15T03:07:06;4.6;96.0
22676;DHT22;12521;43.310;21.876;2023-02-15T03:11:57;4.6;96.0
22676;DHT22;12521;43.310;21.876;2023-02-15T03:16:34;4.6;96.0
22676;DHT22;12521;43.310;21.876;2023-02-15T03:21:17;4.5;96.0
22676;DHT22;12521;43.310;21.876;2023-02-15T03:26:07;4.5;96.0
22676;DHT22;12521;43.310;21.876;2023-02-15T03:30:48;4.5;96.0
22676;DHT22;12521;43.310;21.876;2023-02-15T03:35:47;4.5;96.0
22676;DHT22;12521;43.310;21.876;2023-02-15T03:40:53;4.5;96.0
22676;DHT22;12521;43.310;21.876;2023-02-15T03:45:45;4.5;96.0
22676;DHT22;12521;43.310;21.876;2023-02-15T03:50:43;4.5;96.0
22676;DHT22;12521;43.310;21.876;2023-02-15T03:55:21;4.5;96.0
22676;DHT22;12521;43.310;21.876;2023-02-15T04:00:00;4.5;96.0
22676;DHT22;12521;43.310;21.876;2023-02-15T04:04:58;4.5;96.0
22676;DHT22;12521;43.310;21.876;2023-02-15T04:09:34;4.5;96.0
22676;DHT22;12521;43.310;21.876;2023-02-15T04:14:12;4.4;96.0
22676;DHT22;12521;43.310;21.876;2023-02-15T04:18:48;4.4;96.0
22676;DHT22;12521;43.310;21.876;2023-02-15T04:23:25;4.4;96.0
22676;DHT22;12521;43.310;21.876;2023-02-15T04:28:02;4.4;96.0
22676;DHT22;12521;43.310;21.876;2023-02-15T04:32:39;4.4;96.0
22676;DHT22;12521;43.310;21.876;2023-02-15T04:37:17;4.4;96.0
22676;DHT22;12521;43.310;21.876;2023-02-15T04:41:54;4.3;96.0
22676;DHT22;12521;43.310;21.876;2023-02-15T04:46:31;4.3;96.0
22676;DHT22;12521;43.310;21.876;2023-02-15T04:51:07;4.3;96.0
22676;DHT22;12521;43.310;21.876;2023-02-15T04:55:45;4.3;96.0
22676;DHT22;12521;43.310;21.876;2023-02-15T05:00:21;4.3;96.0
22676;DHT22;12521;43.310;21.876;2023-02-15T05:04:58;4.3;96.0
22676;DHT22;12521;43.310;21.876;2023-02-15T05:09:35;4.3;96.0
22676;DHT22;12521;43.310;21.876;2023-02-15T05:14:12;4.2;96.0
22676;DHT22;12521;43.310;21.876;2023-02-15T05:18:49;4.2;96.0
22676;DHT22;12521;43.310;21.876;2023-02-15T05:23:26;4.2;96.0
22676;DHT22;12521;43.310;21.876;2023-02-15T05:28:03;4.2;96.0
22676;DHT22;12521;43.310;21.876;2023-02-15T05:32:40;4.2;96.0
22676;DHT22;12521;43.310;21.876;2023-02-15T05:37:16;4.2;96.0
22676;DHT22;12521;43.310;21.876;2023-02-15T05:41:52;4.2;96.0
22676;DHT22;12521;43.310;21.876;2023-02-15T05:46:29;4.2;96.0
22676;DHT22;12521;43.310;21.876;2023-02-15T05:51:07;4.2;96.0
22676;DHT22;12521;43.310;21.876;2023-02-15T05:55:49;4.2;96.0
22676;DHT22;12521;43.310;21.876;2023-02-15T06:00:25;4.2;96.0
22676;DHT22;12521;43.310;21.876;2023-02-15T06:05:02;4.2;96.0
22676;DHT22;12521;43.310;21.876;2023-02-15T06:09:43;4.2;96.0
22676;DHT22;12521;43.310;21.876;2023-02-15T06:14:19;4.2;96.0
22676;DHT22;12521;43.310;21.876;2023-02-15T06:18:56;4.2;96.0
22676;DHT22;12521;43.310;21.876;2023-02-15T06:23:32;4.1;96.0
22676;DHT22;12521;43.310;21.876;2023-02-15T06:28:09;4.1;96.0
22676;DHT22;12521;43.310;21.876;2023-02-15T06:32:46;4.2;96.0
22676;DHT22;12521;43.310;21.876;2023-02-15T06:37:22;4.2;96.0
22676;DHT22;12521;43.310;21.876;2023-02-15T06:42:00;4.2;96.0
22676;DHT22;12521;43.310;21.876;2023-02-15T06:46:36;4.2;96.0
22676;DHT22;12521;43.310;21.876;2023-02-15T06:51:13;4.2;96.0
22676;DHT22;12521;43.310;21.876;2023-02-15T06:55:50;4.2;96.0
22676;DHT22;12521;43.310;21.876;2023-02-15T07:00:27;4.2;96.0
22676;DHT22;12521;43.310;21.876;2023-02-15T07:05:03;4.3;96.0
22676;DHT22;12521;43.310;21.876;2023-02-15T07:09:41;4.3;96.0
22676;DHT22;12521;43.310;21.876;2023-02-15T07:14:18;4.4;96.0
22676;DHT22;12521;43.310;21.876;2023-02-15T07:18:54;4.4;96.0
22676;DHT22;12521;43.310;21.876;2023-02-15T07:23:31;4.6;96.0
22676;DHT22;12521;43.310;21.876;2023-02-15T07:28:08;4.6;96.0
22676;DHT22;12521;43.310;21.876;2023-02-15T07:32:44;4.8;96.0
22676;DHT22;12521;43.310;21.876;2023-02-15T07:37:22;4.8;96.0
22676;DHT22;12521;43.310;21.876;2023-02-15T07:41:59;4.9;96.0
22676;DHT22;12521;43.310;21.876;2023-02-15T07:46:36;4.9;96.0
22676;DHT22;12521;43.310;21.876;2023-02-15T07:51:14;5.0;96.0
22676;DHT22;12521;43.310;21.876;2023-02-15T07:55:51;5.0;96.0
22676;DHT22;12521;43.310;21.876;2023-02-15T08:00:28;5.0;96.0
22676;DHT22;12521;43.310;21.876;2023-02-15T08:05:05;5.1;96.0
22676;DHT22;12521;43.310;21.876;2023-02-15T08:09:43;5.1;96.0
22676;DHT22;12521;43.310;21.876;2023-02-15T08:14:21;5.2;96.0
22676;DHT22;12521;43.310;21.876;2023-02-15T08:18:59;5.2;96.0
22676;DHT22;12521;43.310;21.876;2023-02-15T08:23:43;5.4;96.0
22676;DHT22;12521;43.310;21.876;2023-02-15T08:28:21;5.4;96.0
22676;DHT22;12521;43.310;21.876;2023-02-15T08:32:57;5.4;96.0
22676;DHT22;12521;43.310;21.876;2023-02-15T08:37:33;5.4;96.0
22676;DHT22;12521;43.310;21.876;2023-02-15T08:42:10;5.5;96.0
22676;DHT22;12521;43.310;21.876;2023-02-15T08:46:47;5.5;96.0
22676;DHT22;12521;43.310;21.876;2023-02-15T08:51:27;5.8;96.0
22676;DHT22;12521;43.310;21.876;2023-02-15T08:56:12;5.8;96.0
22676;DHT22;12521;43.310;21.876;2023-02-15T09:00:50;5.8;96.0
22676;DHT22;12521;43.310;21.876;2023-02-15T09:05:27;6.0;96.0
22676;DHT22;12521;43.310;21.876;2023-02-15T09:10:04;6.0;96.0
22676;DHT22;12521;43.310;21.876;2023-02-15T09:14:42;6.2;96.0
22676;DHT22;12521;43.310;21.876;2023-02-15T09:19:20;6.2;96.0
22676;DHT22;12521;43.310;21.876;2023-02-15T09:24:02;6.3;96.0
22676;DHT22;12521;43.310;21.876;2023-02-15T09:28:53;6.3;96.0
22676;DHT22;12521;43.310;21.876;2023-02-15T09:33:39;6.5;96.0
22676;DHT22;12521;43.310;21.876;2023-02-15T09:38:23;6.5;96.0
22676;DHT22;12521;43.310;21.876;2023-02-15T09:43:09;6.7;96.0
22676;DHT22;12521;43.310;21.876;2023-02-15T09:48:38;6.7;96.0
22676;DHT22;12521;43.310;21.876;2023-02-15T09:53:29;6.8;96.0
22676;DHT22;12521;43.310;21.876;2023-02-15T09:59:12;6.8;96.0
22676;DHT22;12521;43.310;21.876;2023-02-15T10:04:49;7.0;96.0
22676;DHT22;12521;43.310;21.876;2023-02-15T10:10:08;7.0;96.0
22676;DHT22;12521;43.310;21.876;2023-02-15T10:15:28;7.0;96.0
22676;DHT22;12521;43.310;21.876;2023-02-15T10:20:59;7.0;96.0
22676;DHT22;12521;43.310;21.876;2023-02-15T10:26:27;7.1;96.0
22676;DHT22;12521;43.310;21.876;2023-02-15T10:31:24;7.1;96.0
22676;DHT22;12521;43.310;21.876;2023-02-15T10:36:33;7.1;96.0
22676;DHT22;12521;43.310;21.876;2023-02-15T10:42:24;7.1;96.0
22676;DHT22;12521;43.310;21.876;2023-02-15T10:48:05;7.1;96.0
22676;DHT22;12521;43.310;21.876;2023-02-15T10:54:08;7.0;96.0
22676;DHT22;12521;43.310;21.876;2023-02-15T10:59:25;7.0;96.0
22676;DHT22;12521;43.310;21.876;2023-02-15T11:04:49;7.0;96.0
22676;DHT22;12521;43.310;21.876;2023-02-15T11:10:24;7.0;96.0
22676;DHT22;12521;43.310;21.876;2023-02-15T11:15:23;7.1;96.0
22676;DHT22;12521;43.310;21.876;2023-02-15T11:20:19;7.1;96.0
22676;DHT22;12521;43.310;21.876;2023-02-15T11:25:20;7.2;96.0
22676;DHT22;12521;43.310;21.876;2023-02-15T11:30:15;7.2;96.0
22676;DHT22;12521;43.310;21.876;2023-02-15T11:35:20;7.5;96.0
22676;DHT22;12521;43.310;21.876;2023-02-15T11:40:28;7.5;96.0
22676;DHT22;12521;43.310;21.876;2023-02-15T11:45:27;7.8;96.0
22676;DHT22;12521;43.310;21.876;2023-02-15T11:50:12;7.8;96.0
22676;DHT22;12521;43.310;21.876;2023-02-15T11:55:02;8.0;96.0
22676;DHT22;12521;43.310;21.876;2023-02-15T12:00:03;8.0;96.0
22676;DHT22;12521;43.310;21.876;2023-02-15T12:05:21;8.3;96.0
22676;DHT22;12521;43.310;21.876;2023-02-15T12:10:04;8.3;96.0
22676;DHT22;12521;43.310;21.876;2023-02-15T12:15:08;8.2;96.0
22676;DHT22;12521;43.310;21.876;2023-02-15T12:19:50;8.2;96.0
22676;DHT22;12521;43.310;21.876;2023-02-15T12:24:45;8.2;96.0
22676;DHT22;12521;43.310;21.876;2023-02-15T12:29:35;8.2;96.0
22676;DHT22;12521;43.310;21.876;2023-02-15T12:34:31;8.3;96.0
22676;DHT22;12521;43.310;21.876;2023-02-15T12:39:19;8.3;96.0
22676;DHT22;12521;43.310;21.876;2023-02-15T12:44:07;8.4;96.0
22676;DHT22;12521;43.310;21.876;2023-02-15T12:49:07;8.4;96.0
22676;DHT22;12521;43.310;21.876;2023-02-15T12:53:55;8.4;96.0
22676;DHT22;12521;43.310;21.876;2023-02-15T12:58:33;8.4;96.0
22676;DHT22;12521;43.310;21.876;2023-02-15T13:03:17;8.5;96.0
22676;DHT22;12521;43.310;21.876;2023-02-15T13:08:01;8.5;96.0
22676;DHT22;12521;43.310;21.876;2023-02-15T13:12:57;8.6;96.0
22676;DHT22;12521;43.310;21.876;2023-02-15T13:17:36;8.6;96.0
22676;DHT22;12521;43.310;21.876;2023-02-15T13:22:15;8.6;96.0
22676;DHT22;12521;43.310;21.876;2023-02-15T13:27:15;8.6;96.0
22676;DHT22;12521;43.310;21.876;2023-02-15T13:32:25;8.6;96.0
22676;DHT22;12521;43.310;21.876;2023-02-15T13:37:17;8.6;96.0
22676;DHT22;12521;43.310;21.876;2023-02-15T13:42:46;8.7;96.0
22676;DHT22;12521;43.310;21.876;2023-02-15T13:47:52;8.7;96.0
22676;DHT22;12521;43.310;21.876;2023-02-15T13:53:19;8.6;96.0
22676;DHT22;12521;43.310;21.876;2023-02-15T13:58:55;8.6;96.0
22676;DHT22;12521;43.310;21.876;2023-02-15T14:04:22;8.5;96.0
22676;DHT22;12521;43.310;21.876;2023-02-15T14:10:21;8.5;96.0
22676;DHT22;12521;43.310;21.876;2023-02-15T14:15:40;8.4;96.0
22676;DHT22;12521;43.310;21.876;2023-02-15T14:20:47;8.4;96.0
22676;DHT22;12521;43.310;21.876;2023-02-15T14:26:02;8.3;96.0
22676;DHT22;12521;43.310;21.876;2023-02-15T14:31:25;8.3;96.0
22676;DHT22;12521;43.310;21.876;2023-02-15T14:36:25;8.2;96.0
22676;DHT22;12521;43.310;21.876;2023-02-15T14:41:12;8.2;96.0
22676;DHT22;12521;43.310;21.876;2023-02-15T14:46:28;8.2;96.0
22676;DHT22;12521;43.310;21.876;2023-02-15T14:51:54;8.1;96.0
22676;DHT22;12521;43.310;21.876;2023-02-15T14:56:44;8.1;96.0
22676;DHT22;12521;43.310;21.876;2023-02-15T15:02:17;8.1;96.0
22676;DHT22;12521;43.310;21.876;2023-02-15T15:07:19;8.1;96.0
22676;DHT22;12521;43.310;21.876;2023-02-15T15:12:38;8.0;96.0
22676;DHT22;12521;43.310;21.876;2023-02-15T15:17:54;8.0;96.0
22676;DHT22;12521;43.310;21.876;2023-02-15T15:22:41;7.9;96.0
22676;DHT22;12521;43.310;21.876;2023-02-15T15:27:38;7.9;96.0
22676;DHT22;12521;43.310;21.876;2023-02-15T15:32:30;7.8;96.0
22676;DHT22;12521;43.310;21.876;2023-02-15T15:37:37;7.8;96.0
22676;DHT22;12521;43.310;21.876;2023-02-15T15:43:38;7.7;96.0
22676;DHT22;12521;43.310;21.876;2023-02-15T15:50:20;7.7;96.0
22676;DHT22;12521;43.310;21.876;2023-02-15T15:55:03;7.5;96.0
22676;DHT22;12521;43.310;21.876;2023-02-15T15:59:59;7.5;96.0
22676;DHT22;12521;43.310;21.876;2023-02-15T16:04:39;7.3;96.0
22676;DHT22;12521;43.310;21.876;2023-02-15T16:09:18;7.3;96.0
22676;DHT22;12521;43.310;21.876;2023-02-15T16:14:02;7.0;96.0
22676;DHT22;12521;43.310;21.876;2023-02-15T16:18:44;7.0;96.0
22676;DHT22;12521;43.310;21.876;2023-02-15T16:23:47;6.8;96.0
22676;DHT22;12521;43.310;21.876;2023-02-15T16:29:01;6.8;96.0
22676;DHT22;12521;43.310;21.876;2023-02-15T16:33:52;6.4;96.0
22676;DHT22;12521;43.310;21.876;2023-02-15T16:39:06;6.4;96.0
22676;DHT22;12521;43.310;21.876;2023-02-15T16:43:57;6.0;96.0
22676;DHT22;12521;43.310;21.876;2023-02-15T16:48:58;6.0;96.0
22676;DHT22;12521;43.310;21.876;2023-02-15T16:53:56;5.7;96.0
22676;DHT22;12521;43.310;21.876;2023-02-15T16:58:55;5.7;96.0
22676;DHT22;12521;43.310;21.876;2023-02-15T17:03:36;5.4;96.0
22676;DHT22;12521;43.310;21.876;2023-02-15T17:08:18;5.4;96.0
22676;DHT22;12521;43.310;21.876;2023-02-15T17:13:10;5.2;96.0
22676;DHT22;12521;43.310;21.876;2023-02-15T17:17:55;5.2;96.0
22676;DHT22;12521;43.310;21.876;2023-02-15T17:22:50;5.0;96.0
22676;DHT22;12521;43.310;21.876;2023-02-15T17:27:31;5.0;96.0
22676;DHT22;12521;43.310;21.876;2023-02-15T17:32:15;5.0;96.0
22676;DHT22;12521;43.310;21.876;2023-02-15T17:37:00;5.0;96.0
22676;DHT22;12521;43.310;21.876;2023-02-15T17:41:36;5.0;96.0
22676;DHT22;12521;43.310;21.876;2023-02-15T17:46:13;4.9;96.0
22676;DHT22;12521;43.310;21.876;2023-02-15T17:50:50;4.9;96.0
22676;DHT22;12521;43.310;21.876;2023-02-15T17:55:27;4.8;96.0
22676;DHT22;12521;43.310;21.876;2023-02-15T18:00:05;4.8;96.0
22676;DHT22;12521;43.310;21.876;2023-02-15T18:04:51;4.6;96.0
22676;DHT22;12521;43.310;21.876;2023-02-15T18:09:28;4.6;96.0
22676;DHT22;12521;43.310;21.876;2023-02-15T18:14:06;4.5;96.0
22676;DHT22;12521;43.310;21.876;2023-02-15T18:18:45;4.5;96.0
22676;DHT22;12521;43.310;21.876;2023-02-15T18:23:22;4.4;96.0
22676;DHT22;12521;43.310;21.876;2023-02-15T18:27:59;4.4;96.0
22676;DHT22;12521;43.310;21.876;2023-02-15T18:32:36;4.3;96.0
22676;DHT22;12521;43.310;21.876;2023-02-15T18:37:16;4.3;96.0
22676;DHT22;12521;43.310;21.876;2023-02-15T18:41:58;4.2;96.0
22676;DHT22;12521;43.310;21.876;2023-02-15T18:46:35;4.2;96.0
22676;DHT22;12521;43.310;21.876;2023-02-15T18:51:15;4.2;96.0
22676;DHT22;12521;43.310;21.876;2023-02-15T18:55:58;4.0;96.0
22676;DHT22;12521;43.310;21.876;2023-02-15T19:00:34;4.0;96.0
22676;DHT22;12521;43.310;21.876;2023-02-15T19:05:11;3.9;96.0
22676;DHT22;12521;43.310;21.876;2023-02-15T19:09:53;3.9;96.0
22676;DHT22;12521;43.310;21.876;2023-02-15T19:14:39;3.8;96.0
22676;DHT22;12521;43.310;21.876;2023-02-15T19:19:15;3.8;96.0
22676;DHT22;12521;43.310;21.876;2023-02-15T19:23:54;3.6;96.0
22676;DHT22;12521;43.310;21.876;2023-02-15T19:28:49;3.6;96.0
22676;DHT22;12521;43.310;21.876;2023-02-15T19:33:28;3.5;96.0
22676;DHT22;12521;43.310;21.876;2023-02-15T19:38:07;3.5;96.0
22676;DHT22;12521;43.310;21.876;2023-02-15T19:43:09;3.4;96.0
22676;DHT22;12521;43.310;21.876;2023-02-15T19:47:59;3.4;96.0
22676;DHT22;12521;43.310;21.876;2023-02-15T19:52:36;3.4;96.0
22676;DHT22;12521;43.310;21.876;2023-02-15T19:57:15;3.4;96.0
22676;DHT22;12521;43.310;21.876;2023-02-15T20:01:52;3.3;96.0
22676;DHT22;12521;43.310;21.876;2023-02-15T20:06:33;3.3;96.0
22676;DHT22;12521;43.310;21.876;2023-02-15T20:11:11;3.3;96.0
22676;DHT22;12521;43.310;21.876;2023-02-15T20:15:49;3.1;96.0
22676;DHT22;12521;43.310;21.876;2023-02-15T20:20:29;3.1;96.0
22676;DHT22;12521;43.310;21.876;2023-02-15T20:25:25;2.9;96.0
22676;DHT22;12521;43.310;21.876;2023-02-15T20:30:14;2.9;96.0
22676;DHT22;12521;43.310;21.876;2023-02-15T20:35:03;2.8;96.0
22676;DHT22;12521;43.310;21.876;2023-02-15T20:39:46;2.8;96.0
22676;DHT22;12521;43.310;21.876;2023-02-15T20:44:24;2.8;96.0
22676;DHT22;12521;43.310;21.876;2023-02-15T20:49:06;2.8;96.0
22676;DHT22;12521;43.310;21.876;2023-02-15T20:53:43;2.6;96.0
22676;DHT22;12521;43.310;21.876;2023-02-15T20:58:24;2.6;96.0
22676;DHT22;12521;43.310;21.876;2023-02-15T21:03:11;2.5;96.0
22676;DHT22;12521;43.310;21.876;2023-02-15T21:07:57;2.5;96.0
22676;DHT22;12521;43.310;21.876;2023-02-15T21:12:36;2.4;96.0
22676;DHT22;12521;43.310;21.876;2023-02-15T21:17:15;2.4;96.0
22676;DHT22;12521;43.310;21.876;2023-02-15T21:21:52;2.4;96.0
22676;DHT22;12521;43.310;21.876;2023-02-15T21:26:31;2.3;96.0
22676;DHT22;12521;43.310;21.876;2023-02-15T21:31:14;2.3;96.0
22676;DHT22;12521;43.310;21.876;2023-02-15T21:35:58;2.2;96.0
22676;DHT22;12521;43.310;21.876;2023-02-15T21:40:36;2.2;96.0
22676;DHT22;12521;43.310;21.876;2023-02-15T21:45:14;2.2;96.0
22676;DHT22;12521;43.310;21.876;2023-02-15T21:49:53;2.2;96.0
22676;DHT22;12521;43.310;21.876;2023-02-15T21:54:29;2.2;96.0
22676;DHT22;12521;43.310;21.876;2023-02-15T21:59:08;2.2;96.0
22676;DHT22;12521;43.310;21.876;2023-02-15T22:03:47;2.1;96.0
22676;DHT22;12521;43.310;21.876;2023-02-15T22:08:26;2.1;96.0
22676;DHT22;12521;43.310;21.876;2023-02-15T22:13:03;2.0;96.0
22676;DHT22;12521;43.310;21.876;2023-02-15T22:17:49;2.0;96.0
22676;DHT22;12521;43.310;21.876;2023-02-15T22:22:27;2.0;96.0
22676;DHT22;12521;43.310;21.876;2023-02-15T22:27:04;2.0;96.0
22676;DHT22;12521;43.310;21.876;2023-02-15T22:31:56;2.0;96.0
22676;DHT22;12521;43.310;21.876;2023-02-15T22:36:34;2.0;96.0
22676;DHT22;12521;43.310;21.876;2023-02-15T22:41:11;2.0;96.0
22676;DHT22;12521;43.310;21.876;2023-02-15T22:45:50;2.0;96.0
22676;DHT22;12521;43.310;21.876;2023-02-15T22:50:32;2.0;96.0
22676;DHT22;12521;43.310;21.876;2023-02-15T22:55:13;1.9;96.0
22676;DHT22;12521;43.310;21.876;2023-02-15T22:59:53;1.9;96.0
22676;DHT22;12521;43.310;21.876;2023-02-15T23:04:31;1.8;96.0
22676;DHT22;12521;43.310;21.876;2023-02-15T23:09:07;1.8;96.0
22676;DHT22;12521;43.310;21.876;2023-02-15T23:13:47;1.8;96.0
22676;DHT22;12521;43.310;21.876;2023-02-15T23:18:26;1.8;96.0
22676;DHT22;12521;43.310;21.876;2023-02-15T23:23:14;1.7;96.0
22676;DHT22;12521;43.310;21.876;2023-02-15T23:28:17;1.7;96.0
22676;DHT22;12521;43.310;21.876;2023-02-15T23:33:08;1.6;96.0
22676;DHT22;12521;43.310;21.876;2023-02-15T23:37:48;1.6;96.0
22676;DHT22;12521;43.310;21.876;2023-02-15T23:42:27;1.5;96.0
22676;DHT22;12521;43.310;21.876;2023-02-15T23:47:18;1.5;96.0
22676;DHT22;12521;43.310;21.876;2023-02-15T23:52:09;1.5;96.0
22676;DHT22;12521;43.310;21.876;2023-02-15T23:56:49;1.4;96.0
